createdAt,value
2018-12-04T00:02:21.061Z,62.52
2018-12-04T00:04:49.622Z,61.75
2018-12-04T00:07:18.154Z,61.19
2018-12-04T00:09:46.626Z,61.20
2018-12-04T00:12:15.073Z,61.59
2018-12-04T00:14:43.551Z,61.61
2018-12-04T00:17:11.955Z,62.16
2018-12-04T00:19:40.457Z,61.52
2018-12-04T00:22:08.924Z,61.21
2018-12-04T00:24:37.509Z,61.22
2018-12-04T00:27:05.984Z,60.52
2018-12-04T00:29:34.498Z,60.18
2018-12-04T00:32:02.958Z,60.70
2018-12-04T00:34:31.564Z,60.43
2018-12-04T00:37:00.046Z,60.39
2018-12-04T00:39:28.553Z,59.87
2018-12-04T00:41:57.060Z,59.58
2018-12-04T00:44:25.635Z,59.87
2018-12-04T00:46:54.099Z,59.66
2018-12-04T00:49:22.610Z,59.91
2018-12-04T00:51:51.090Z,60.15
2018-12-04T00:54:19.626Z,59.76
2018-12-04T00:56:48.160Z,59.27
2018-12-04T00:59:16.672Z,59.03
2018-12-04T01:01:45.202Z,59.01
2018-12-04T01:04:13.701Z,58.68
2018-12-04T01:06:42.219Z,58.34
2018-12-04T01:09:11.464Z,58.55
2018-12-04T01:11:39.961Z,58.66
2018-12-04T01:14:08.437Z,58.21
2018-12-04T01:16:36.961Z,58.54
2018-12-04T01:19:05.390Z,58.70
2018-12-04T01:21:33.926Z,58.43
2018-12-04T01:24:02.456Z,58.75
2018-12-04T01:26:30.920Z,58.35
2018-12-04T01:28:59.393Z,58.14
2018-12-04T01:31:27.919Z,58.55
2018-12-04T01:33:56.407Z,58.67
2018-12-04T01:36:24.936Z,58.27
2018-12-04T01:38:53.461Z,58.36
2018-12-04T01:41:22.012Z,58.66
2018-12-04T01:43:50.488Z,58.46
2018-12-04T01:46:19.027Z,58.61
2018-12-04T01:48:47.586Z,58.96
2018-12-04T01:51:16.119Z,58.87
2018-12-04T01:53:44.655Z,59.06
2018-12-04T01:56:13.174Z,59.37
2018-12-04T01:58:41.727Z,59.37
2018-12-04T02:01:10.255Z,59.05
2018-12-04T02:03:38.775Z,59.05
2018-12-04T02:06:07.257Z,58.78
2018-12-04T02:08:35.795Z,58.78
2018-12-04T02:11:04.322Z,58.82
2018-12-04T02:13:32.779Z,59.18
2018-12-04T02:16:01.251Z,59.44
2018-12-04T02:18:29.772Z,59.23
2018-12-04T02:20:58.239Z,59.04
2018-12-04T02:23:27.354Z,58.88
2018-12-04T02:25:55.892Z,59.03
2018-12-04T02:28:28.568Z,59.03
2018-12-04T02:30:57.114Z,59.03
2018-12-04T02:33:25.587Z,58.72
2018-12-04T02:35:54.101Z,58.89
2018-12-04T02:38:22.622Z,59.23
2018-12-04T02:40:51.069Z,58.99
2018-12-04T02:43:19.587Z,59.22
2018-12-04T02:45:48.395Z,59.54
2018-12-04T02:48:16.954Z,59.31
2018-12-04T02:50:45.533Z,59.00
2018-12-04T02:53:14.039Z,59.36
2018-12-04T02:55:42.570Z,58.66
2018-12-04T02:58:11.037Z,58.66
2018-12-04T03:00:39.555Z,59.11
2018-12-04T03:03:08.015Z,58.96
2018-12-04T03:05:36.461Z,58.73
2018-12-04T03:08:04.954Z,58.78
2018-12-04T03:10:33.498Z,58.58
2018-12-04T03:13:02.156Z,58.68
2018-12-04T03:15:30.741Z,58.89
2018-12-04T03:17:59.192Z,59.08
2018-12-04T03:20:27.654Z,59.06
2018-12-04T03:22:56.115Z,58.77
2018-12-04T03:25:24.645Z,58.84
2018-12-04T03:27:53.144Z,58.84
2018-12-04T03:30:21.604Z,58.70
2018-12-04T03:32:50.095Z,58.63
2018-12-04T03:35:18.568Z,58.54
2018-12-04T03:37:47.119Z,58.81
2018-12-04T03:40:15.631Z,58.68
2018-12-04T03:42:44.142Z,59.00
2018-12-04T03:45:12.642Z,59.02
2018-12-04T03:47:41.112Z,58.74
2018-12-04T03:50:09.638Z,58.86
2018-12-04T03:52:38.162Z,58.87
2018-12-04T03:55:06.705Z,59.31
2018-12-04T03:57:35.156Z,58.64
2018-12-04T04:00:03.726Z,59.05
2018-12-04T04:02:32.324Z,58.97
2018-12-04T04:05:00.871Z,59.28
2018-12-04T04:07:29.361Z,59.20
2018-12-04T04:09:57.932Z,59.36
2018-12-04T04:12:26.609Z,59.10
2018-12-04T04:14:55.123Z,59.11
2018-12-04T04:17:23.570Z,59.17
2018-12-04T04:19:52.066Z,59.20
2018-12-04T04:22:20.614Z,59.06
2018-12-04T04:24:49.237Z,59.39
2018-12-04T04:27:17.900Z,59.53
2018-12-04T04:29:46.434Z,59.15
2018-12-04T04:32:14.952Z,59.55
2018-12-04T04:34:43.453Z,59.27
2018-12-04T04:37:11.960Z,59.44
2018-12-04T04:39:40.578Z,59.43
2018-12-04T04:42:09.060Z,59.14
2018-12-04T04:44:37.557Z,58.69
2018-12-04T04:47:06.047Z,58.69
2018-12-04T04:49:34.621Z,58.68
2018-12-04T04:52:03.146Z,58.79
2018-12-04T04:54:31.643Z,58.52
2018-12-04T04:57:00.203Z,58.88
2018-12-04T04:59:28.743Z,58.74
2018-12-04T05:01:57.323Z,59.14
2018-12-04T05:04:25.877Z,58.83
2018-12-04T05:06:54.492Z,58.91
2018-12-04T05:09:23.048Z,58.91
2018-12-04T05:11:51.547Z,59.19
2018-12-04T05:14:19.971Z,59.09
2018-12-04T05:16:48.462Z,59.15
2018-12-04T05:19:17.231Z,58.96
2018-12-04T05:21:45.797Z,59.47
2018-12-04T05:24:14.482Z,58.94
2018-12-04T05:26:42.971Z,59.06
2018-12-04T05:29:11.395Z,58.83
2018-12-04T05:31:42.901Z,59.09
2018-12-04T05:34:16.242Z,59.14
2018-12-04T05:36:44.974Z,59.28
2018-12-04T05:39:18.271Z,59.21
2018-12-04T05:41:52.222Z,58.75
2018-12-04T05:44:20.683Z,59.37
2018-12-04T05:46:49.171Z,59.20
2018-12-04T05:49:22.317Z,59.08
2018-12-04T05:51:50.989Z,58.80
2018-12-04T05:54:27.266Z,58.62
2018-12-04T05:56:56.368Z,58.98
2018-12-04T05:59:27.269Z,58.73
2018-12-04T06:01:56.018Z,59.34
2018-12-04T06:04:27.202Z,59.49
2018-12-04T06:06:56.576Z,59.23
2018-12-04T06:09:25.841Z,59.35
2018-12-04T06:11:58.185Z,59.55
2018-12-04T06:14:28.944Z,59.48
2018-12-04T06:16:57.555Z,59.74
2018-12-04T06:19:26.058Z,59.85
2018-12-04T06:21:54.583Z,59.70
2018-12-04T06:24:35.029Z,59.58
2018-12-04T06:27:03.572Z,59.40
2018-12-04T06:29:38.631Z,59.50
2018-12-04T06:32:07.348Z,58.99
2018-12-04T06:34:48.094Z,58.99
2018-12-04T06:37:16.916Z,58.70
2018-12-04T06:39:45.395Z,58.85
2018-12-04T06:42:13.902Z,58.56
2018-12-04T06:44:46.734Z,59.04
2018-12-04T06:47:13.065Z,58.80
2018-12-04T06:49:41.574Z,58.50
2018-12-04T06:52:10.089Z,58.24
2018-12-04T06:54:38.577Z,58.92
2018-12-04T06:57:07.119Z,58.62
2018-12-04T06:59:35.580Z,58.80
2018-12-04T07:02:04.168Z,58.77
2018-12-04T07:04:32.790Z,58.73
2018-12-04T07:07:01.460Z,58.28
2018-12-04T07:09:29.920Z,58.63
2018-12-04T07:12:02.445Z,58.66
2018-12-04T07:14:29.171Z,58.52
2018-12-04T07:16:57.772Z,58.54
2018-12-04T07:19:26.248Z,58.24
2018-12-04T07:21:54.782Z,57.98
2018-12-04T07:24:23.252Z,58.34
2018-12-04T07:26:51.988Z,58.52
2018-12-04T07:29:20.539Z,58.33
2018-12-04T07:31:49.073Z,58.38
2018-12-04T07:34:17.828Z,58.33
2018-12-04T07:36:46.303Z,58.47
2018-12-04T07:39:14.808Z,58.46
2018-12-04T07:41:43.264Z,58.03
2018-12-04T07:44:11.856Z,58.34
2018-12-04T07:46:40.424Z,57.79
2018-12-04T07:49:08.914Z,58.18
2018-12-04T07:51:37.397Z,57.68
2018-12-04T07:54:05.886Z,57.42
2018-12-04T07:56:34.410Z,57.49
2018-12-04T07:59:02.890Z,57.52
2018-12-04T08:01:31.344Z,57.48
2018-12-04T08:03:59.871Z,57.73
2018-12-04T08:06:28.390Z,57.66
2018-12-04T08:08:56.973Z,57.51
2018-12-04T08:11:25.467Z,56.76
2018-12-04T08:13:53.939Z,56.71
2018-12-04T08:16:22.422Z,55.82
2018-12-04T08:18:50.935Z,55.34
2018-12-04T08:21:19.694Z,54.57
2018-12-04T08:23:49.022Z,53.82
2018-12-04T08:26:17.507Z,54.01
2018-12-04T08:28:45.978Z,53.35
2018-12-04T08:31:14.519Z,53.55
2018-12-04T08:33:43.050Z,53.17
2018-12-04T08:36:11.525Z,53.03
2018-12-04T08:38:40.030Z,53.24
2018-12-04T08:41:08.482Z,53.18
2018-12-04T08:43:37.085Z,52.73
2018-12-04T08:46:05.532Z,52.60
2018-12-04T08:48:33.978Z,53.10
2018-12-04T08:51:02.429Z,53.02
2018-12-04T08:53:30.981Z,53.25
2018-12-04T08:55:59.474Z,52.70
2018-12-04T08:58:28.159Z,52.80
2018-12-04T09:00:56.772Z,52.82
2018-12-04T09:03:25.376Z,52.45
2018-12-04T09:05:53.977Z,53.09
2018-12-04T09:08:22.698Z,52.61
2018-12-04T09:10:51.520Z,52.39
2018-12-04T09:13:20.833Z,52.33
2018-12-04T09:15:49.492Z,51.44
2018-12-04T09:18:18.007Z,50.37
2018-12-04T09:20:46.731Z,49.40
2018-12-04T09:23:15.515Z,49.37
2018-12-04T09:25:44.192Z,49.42
2018-12-04T09:28:12.795Z,47.88
2018-12-04T09:30:41.357Z,47.16
2018-12-04T09:33:09.890Z,46.49
2018-12-04T09:35:38.459Z,45.00
2018-12-04T09:38:07.065Z,44.56
2018-12-04T09:40:35.635Z,43.52
2018-12-04T09:43:04.338Z,43.59
2018-12-04T09:45:33.005Z,43.23
2018-12-04T09:48:01.605Z,44.03
2018-12-04T09:50:30.128Z,42.50
2018-12-04T09:52:58.691Z,41.25
2018-12-04T09:55:27.241Z,39.93
2018-12-04T09:57:55.815Z,38.06
2018-12-04T10:00:24.403Z,36.71
2018-12-04T10:02:52.955Z,35.57
2018-12-04T10:05:21.494Z,36.85
2018-12-04T10:07:50.090Z,36.51
2018-12-04T10:10:18.699Z,36.48
2018-12-04T10:12:47.379Z,38.13
2018-12-04T10:15:16.085Z,38.53
2018-12-04T10:17:44.610Z,39.26
2018-12-04T10:20:14.022Z,39.65
2018-12-04T10:22:42.543Z,40.34
2018-12-04T10:25:11.166Z,39.44
2018-12-04T10:27:39.686Z,38.54
2018-12-04T10:30:09.964Z,37.26
2018-12-04T10:32:39.581Z,37.72
2018-12-04T10:35:08.161Z,36.38
2018-12-04T10:37:36.767Z,34.88
2018-12-04T10:40:07.116Z,34.18
2018-12-04T10:42:35.849Z,31.84
2018-12-04T10:45:04.336Z,29.69
2018-12-04T10:47:32.893Z,28.89
2018-12-04T10:50:01.412Z,28.69
2018-12-04T10:52:30.011Z,27.97
2018-12-04T10:54:59.559Z,28.09
2018-12-04T10:57:28.161Z,27.90
2018-12-04T10:59:56.802Z,28.91
2018-12-04T11:02:26.098Z,27.98
2018-12-04T11:04:54.578Z,28.89
2018-12-04T11:07:23.066Z,27.22
2018-12-04T11:09:51.561Z,26.70
2018-12-04T11:12:20.099Z,25.66
2018-12-04T11:14:48.653Z,24.25
2018-12-04T11:17:17.275Z,25.17
2018-12-04T11:19:45.806Z,26.56
2018-12-04T11:22:14.273Z,28.33
2018-12-04T11:24:42.858Z,28.83
2018-12-04T11:27:11.392Z,29.80
2018-12-04T11:29:39.916Z,31.14
2018-12-04T11:32:08.673Z,32.03
2018-12-04T11:34:37.173Z,31.84
2018-12-04T11:37:05.767Z,31.24
2018-12-04T11:39:34.271Z,29.29
2018-12-04T11:42:02.744Z,27.54
2018-12-04T11:44:31.221Z,28.55
2018-12-04T11:46:59.642Z,29.03
2018-12-04T11:49:28.118Z,30.15
2018-12-04T11:51:56.692Z,28.98
2018-12-04T11:54:25.303Z,26.77
2018-12-04T11:56:53.833Z,23.11
2018-12-04T11:59:22.360Z,21.11
2018-12-04T12:01:50.892Z,19.03
2018-12-04T12:04:19.404Z,18.33
2018-12-04T12:06:48.002Z,19.59
2018-12-04T12:09:16.499Z,19.81
2018-12-04T12:11:45.008Z,19.24
2018-12-04T12:14:13.566Z,19.89
2018-12-04T12:16:42.096Z,19.69
2018-12-04T12:19:10.598Z,18.48
2018-12-04T12:21:39.368Z,18.26
2018-12-04T12:24:07.838Z,20.02
2018-12-04T12:26:36.419Z,19.89
2018-12-04T12:29:05.059Z,22.00
2018-12-04T12:31:33.597Z,23.09
2018-12-04T12:34:02.098Z,24.71
2018-12-04T12:36:30.671Z,26.12
2018-12-04T12:38:59.148Z,28.00
2018-12-04T12:41:27.654Z,29.59
2018-12-04T12:46:27.784Z,31.74
2018-12-04T12:48:56.397Z,32.96
2018-12-04T12:51:24.952Z,34.32
2018-12-04T12:53:53.471Z,35.07
2018-12-04T12:56:22.075Z,36.38
2018-12-04T12:58:51.806Z,37.06
2018-12-04T13:01:20.430Z,37.21
2018-12-04T13:03:48.915Z,38.39
2018-12-04T13:06:17.521Z,37.95
2018-12-04T13:08:46.065Z,38.84
2018-12-04T13:11:14.594Z,39.58
2018-12-04T13:13:43.268Z,39.99
2018-12-04T13:16:11.801Z,40.64
2018-12-04T13:18:40.397Z,40.97
2018-12-04T13:21:08.874Z,41.01
2018-12-04T13:23:37.360Z,41.42
2018-12-04T13:26:09.796Z,41.58
2018-12-04T13:28:38.552Z,42.09
2018-12-04T13:31:07.163Z,42.34
2018-12-04T13:33:36.067Z,42.37
2018-12-04T13:36:04.730Z,42.95
2018-12-04T13:38:33.253Z,43.24
2018-12-04T13:41:01.833Z,43.39
2018-12-04T13:43:30.425Z,44.01
2018-12-04T13:45:58.980Z,44.47
2018-12-04T13:48:27.496Z,44.71
2018-12-04T13:50:56.098Z,44.76
2018-12-04T13:53:24.690Z,45.55
2018-12-04T13:55:53.277Z,45.06
2018-12-04T13:58:21.873Z,45.19
2018-12-04T14:00:50.536Z,44.87
2018-12-04T14:03:19.207Z,44.67
2018-12-04T14:05:47.768Z,44.33
2018-12-04T14:08:16.283Z,45.13
2018-12-04T14:10:44.805Z,44.94
2018-12-04T14:13:13.577Z,45.66
2018-12-04T14:15:43.222Z,45.30
2018-12-04T14:18:11.932Z,45.62
2018-12-04T14:20:42.624Z,45.58
2018-12-04T14:23:11.186Z,45.13
2018-12-04T14:25:39.840Z,44.65
2018-12-04T14:28:08.469Z,44.94
2018-12-04T14:30:37.142Z,45.00
2018-12-04T14:33:05.878Z,45.06
2018-12-04T14:35:34.532Z,45.22
2018-12-04T14:38:03.089Z,44.99
2018-12-04T14:40:32.078Z,45.14
2018-12-04T14:43:00.586Z,45.30
2018-12-04T14:45:29.162Z,45.06
2018-12-04T14:47:57.739Z,45.20
2018-12-04T14:50:26.392Z,45.15
2018-12-04T14:52:55.002Z,45.57
2018-12-04T14:55:23.631Z,45.50
2018-12-04T14:57:52.280Z,45.77
2018-12-04T15:00:20.925Z,45.88
2018-12-04T15:02:49.558Z,46.12
2018-12-04T15:05:18.074Z,46.79
2018-12-04T15:07:46.572Z,46.76
2018-12-04T15:10:15.233Z,47.04
2018-12-04T15:12:43.830Z,47.42
2018-12-04T15:15:12.426Z,47.94
2018-12-04T15:17:41.002Z,47.91
2018-12-04T15:20:09.479Z,48.46
2018-12-04T15:22:38.008Z,48.69
2018-12-04T15:25:06.565Z,49.08
2018-12-04T15:27:35.108Z,49.84
2018-12-04T15:30:03.721Z,49.90
2018-12-04T15:32:32.368Z,50.89
2018-12-04T15:35:01.250Z,50.64
2018-12-04T15:37:29.897Z,51.24
2018-12-04T15:39:58.633Z,51.35
2018-12-04T15:42:27.319Z,51.24
2018-12-04T15:44:55.950Z,51.71
2018-12-04T15:47:24.490Z,51.96
2018-12-04T15:49:53.036Z,51.99
2018-12-04T15:52:21.560Z,52.00
2018-12-04T15:54:50.027Z,51.91
2018-12-04T15:57:18.844Z,52.35
2018-12-04T15:59:47.778Z,52.31
2018-12-04T16:02:16.228Z,52.34
2018-12-04T16:04:44.751Z,52.77
2018-12-04T16:07:13.356Z,52.75
2018-12-04T16:09:41.940Z,52.59
2018-12-04T16:12:10.591Z,53.13
2018-12-04T16:14:39.186Z,53.11
2018-12-04T16:17:14.959Z,53.47
2018-12-04T16:19:38.457Z,53.41
2018-12-04T16:22:07.013Z,53.66
2018-12-04T16:24:35.621Z,53.90
2018-12-04T16:27:04.246Z,54.15
2018-12-04T16:29:33.132Z,54.36
2018-12-04T16:32:01.706Z,54.16
2018-12-04T16:34:30.473Z,54.33
2018-12-04T16:36:59.073Z,54.80
2018-12-04T16:39:27.687Z,54.90
2018-12-04T16:41:56.299Z,55.06
2018-12-04T16:44:24.915Z,55.04
2018-12-04T16:46:53.572Z,54.87
2018-12-04T16:49:22.222Z,54.94
2018-12-04T16:51:50.843Z,54.86
2018-12-04T16:54:19.493Z,54.91
2018-12-04T16:56:48.024Z,55.13
2018-12-04T16:59:16.691Z,55.07
2018-12-04T17:01:45.248Z,54.99
2018-12-04T17:04:13.796Z,55.35
2018-12-04T17:06:42.390Z,55.42
2018-12-04T17:09:11.080Z,55.42
2018-12-04T17:11:39.709Z,55.74
2018-12-04T17:14:08.284Z,55.99
2018-12-04T17:16:36.801Z,55.81
2018-12-04T17:19:05.583Z,55.71
2018-12-04T17:21:34.346Z,55.94
2018-12-04T17:24:03.019Z,56.08
2018-12-04T17:26:31.600Z,55.99
2018-12-04T17:29:00.138Z,56.14
2018-12-04T17:31:28.682Z,56.10
2018-12-04T17:33:57.288Z,56.63
2018-12-04T17:36:25.833Z,56.41
2018-12-04T17:38:54.405Z,56.51
2018-12-04T17:41:23.035Z,56.35
2018-12-04T17:43:51.759Z,56.41
2018-12-04T17:46:20.244Z,56.31
2018-12-04T17:48:48.941Z,56.37
2018-12-04T17:51:17.566Z,56.73
2018-12-04T17:53:46.337Z,56.95
2018-12-04T17:56:14.999Z,56.72
2018-12-04T17:58:43.818Z,56.83
2018-12-04T18:01:12.567Z,56.89
2018-12-04T18:03:41.193Z,56.94
2018-12-04T18:06:09.741Z,56.86
2018-12-04T18:08:38.258Z,57.17
2018-12-04T18:11:06.851Z,57.41
2018-12-04T18:13:35.390Z,57.22
2018-12-04T18:16:03.932Z,57.45
2018-12-04T18:18:32.508Z,57.22
2018-12-04T18:21:01.223Z,57.36
2018-12-04T18:23:29.693Z,57.70
2018-12-04T18:25:58.326Z,57.50
2018-12-04T18:28:26.862Z,57.87
2018-12-04T18:30:55.327Z,57.82
2018-12-04T18:33:24.002Z,57.92
2018-12-04T18:35:52.630Z,57.89
2018-12-04T18:38:21.352Z,58.14
2018-12-04T18:40:49.860Z,58.27
2018-12-04T18:43:18.444Z,57.86
2018-12-04T18:45:47.004Z,57.83
2018-12-04T18:48:15.518Z,58.12
2018-12-04T18:50:44.134Z,58.18
2018-12-04T18:53:12.695Z,58.20
2018-12-04T18:55:41.343Z,58.50
2018-12-04T18:58:09.858Z,58.48
2018-12-04T19:00:38.453Z,58.75
2018-12-04T19:03:07.096Z,58.83
2018-12-04T19:05:35.638Z,58.37
2018-12-04T19:08:04.196Z,58.92
2018-12-04T19:10:32.789Z,58.68
2018-12-04T19:13:02.324Z,58.62
2018-12-04T19:15:30.869Z,59.07
2018-12-04T19:17:59.412Z,59.03
2018-12-04T19:20:28.032Z,58.72
2018-12-04T19:22:56.571Z,58.99
2018-12-04T19:25:25.161Z,59.02
2018-12-04T19:27:53.897Z,58.96
2018-12-04T19:30:22.423Z,59.00
2018-12-04T19:32:50.935Z,58.70
2018-12-04T19:35:19.568Z,58.89
2018-12-04T19:37:48.066Z,59.15
2018-12-04T19:40:16.687Z,59.16
2018-12-04T19:42:45.570Z,59.35
2018-12-04T19:45:14.406Z,58.79
2018-12-04T19:47:42.957Z,59.34
2018-12-04T19:50:11.575Z,58.98
2018-12-04T19:52:40.502Z,58.76
2018-12-04T19:55:09.119Z,59.39
2018-12-04T19:57:37.765Z,60.04
2018-12-04T20:00:08.211Z,59.28
2018-12-04T20:02:36.807Z,59.40
2018-12-04T20:05:05.416Z,59.29
2018-12-04T20:07:33.933Z,59.20
2018-12-04T20:10:02.856Z,59.13
2018-12-04T20:12:31.487Z,59.66
2018-12-04T20:15:00.189Z,59.30
2018-12-04T20:17:28.640Z,59.12
2018-12-04T20:19:57.223Z,59.39
2018-12-04T20:22:25.809Z,59.52
2018-12-04T20:24:54.393Z,59.76
2018-12-04T20:27:23.124Z,59.30
2018-12-04T20:29:51.651Z,59.55
2018-12-04T20:32:20.210Z,59.61
2018-12-04T20:34:48.716Z,59.34
2018-12-04T20:37:17.450Z,59.56
2018-12-04T20:39:46.090Z,59.51
2018-12-04T20:42:14.864Z,59.70
2018-12-04T20:44:43.368Z,59.67
2018-12-04T20:47:11.980Z,59.61
2018-12-04T20:49:40.754Z,59.94
2018-12-04T20:52:09.619Z,59.80
2018-12-04T20:54:38.122Z,59.72
2018-12-04T20:57:06.794Z,60.15
2018-12-04T20:59:35.314Z,59.67
2018-12-04T21:02:04.074Z,60.20
2018-12-04T21:04:32.600Z,59.73
2018-12-04T21:07:01.165Z,60.04
2018-12-04T21:09:29.708Z,59.87
2018-12-04T21:11:58.260Z,60.04
2018-12-04T21:14:26.794Z,60.06
2018-12-04T21:16:55.285Z,59.76
2018-12-04T21:19:23.756Z,59.92
2018-12-04T21:21:52.479Z,59.69
2018-12-04T21:24:20.965Z,59.77
2018-12-04T21:26:57.079Z,59.59
2018-12-04T21:29:31.430Z,60.17
2018-12-04T21:32:05.461Z,59.73
2018-12-04T21:34:39.415Z,59.89
2018-12-04T21:37:13.170Z,59.84
2018-12-04T21:39:44.176Z,59.90
2018-12-04T21:42:17.862Z,59.99
2018-12-04T21:44:51.556Z,60.35
2018-12-04T21:47:25.139Z,60.22
2018-12-04T21:49:53.617Z,60.20
2018-12-04T21:52:22.223Z,59.91
2018-12-04T21:54:50.694Z,60.27
2018-12-04T21:57:19.192Z,60.32
2018-12-04T21:59:47.719Z,59.89
2018-12-04T22:02:16.209Z,60.03
2018-12-04T22:04:45.068Z,60.24
2018-12-04T22:07:13.877Z,59.97
2018-12-04T22:09:42.318Z,59.96
2018-12-04T22:12:10.825Z,60.32
2018-12-04T22:14:39.264Z,60.09
2018-12-04T22:17:07.843Z,60.58
2018-12-04T22:19:36.320Z,60.13
2018-12-04T22:22:04.892Z,59.92
2018-12-04T22:24:33.458Z,60.38
2018-12-04T22:27:01.940Z,60.05
2018-12-04T22:29:30.444Z,60.22
2018-12-04T22:31:59.012Z,59.91
2018-12-04T22:34:27.523Z,60.44
2018-12-04T22:36:56.081Z,59.80
2018-12-04T22:39:24.616Z,60.10
2018-12-04T22:41:53.090Z,59.60
2018-12-04T22:44:21.642Z,60.04
2018-12-04T22:46:50.115Z,60.31
2018-12-04T22:49:18.561Z,59.65
2018-12-04T22:51:47.061Z,60.15
2018-12-04T22:54:15.572Z,59.48
2018-12-04T22:56:44.041Z,59.69
2018-12-04T22:59:12.550Z,60.04
2018-12-04T23:01:41.925Z,59.97
2018-12-04T23:04:10.544Z,59.96
2018-12-04T23:06:39.049Z,59.96
2018-12-04T23:09:10.341Z,59.72
2018-12-04T23:11:39.189Z,59.82
2018-12-04T23:14:07.868Z,58.93
2018-12-04T23:16:36.437Z,59.56
2018-12-04T23:19:05.070Z,59.46
2018-12-04T23:21:33.550Z,59.43
2018-12-04T23:24:02.059Z,59.37
2018-12-04T23:26:30.693Z,59.72
2018-12-04T23:28:59.191Z,59.73
2018-12-04T23:31:27.647Z,59.21
2018-12-04T23:33:56.213Z,59.07
2018-12-04T23:36:24.703Z,59.52
2018-12-04T23:38:53.249Z,59.40
2018-12-04T23:41:21.769Z,58.74
2018-12-04T23:43:50.498Z,59.38
2018-12-04T23:46:18.989Z,59.26
2018-12-04T23:48:47.569Z,59.10
2018-12-04T23:51:16.101Z,59.28
2018-12-04T23:53:44.580Z,59.59
2018-12-04T23:56:13.071Z,59.19
2018-12-04T23:58:41.625Z,59.25
